createdAt,value
2023-05-15T00:00:29.332Z,11.13
2023-05-15T00:03:13.172Z,12.33
2023-05-15T00:05:57.992Z,12.03
2023-05-15T00:08:41.968Z,12.70
2023-05-15T00:11:27.956Z,12.93
2023-05-15T00:14:12.868Z,11.70
2023-05-15T00:16:56.537Z,12.73
2023-05-15T00:19:39.779Z,13.17
2023-05-15T00:22:24.989Z,13.63
2023-05-15T00:25:09.062Z,13.13
2023-05-15T00:27:52.410Z,15.03
2023-05-15T00:30:35.766Z,12.40
2023-05-15T00:33:19.035Z,10.93
2023-05-15T00:36:02.549Z,13.13
2023-05-15T00:38:47.855Z,11.83
2023-05-15T00:41:33.539Z,12.40
2023-05-15T00:44:19.324Z,14.90
2023-05-15T00:47:05.333Z,14.23
2023-05-15T00:49:49.750Z,14.20
2023-05-15T00:52:33.642Z,14.07
2023-05-15T00:55:18.861Z,15.03
2023-05-15T00:58:03.219Z,15.23
2023-05-15T01:00:47.843Z,14.77
2023-05-15T01:03:31.536Z,15.97
2023-05-15T01:06:15.272Z,15.00
2023-05-15T01:09:02.451Z,15.47
2023-05-15T01:11:49.464Z,15.37
2023-05-15T01:14:32.664Z,15.63
2023-05-15T01:17:15.885Z,15.87
2023-05-15T01:20:00.894Z,15.77
2023-05-15T01:22:53.705Z,17.37
2023-05-15T01:25:56.721Z,18.53
2023-05-15T01:28:44.751Z,19.87
2023-05-15T01:31:31.297Z,20.90
2023-05-15T01:34:19.033Z,18.07
2023-05-15T01:37:05.089Z,18.83
2023-05-15T01:39:51.676Z,22.23
2023-05-15T01:42:36.340Z,17.90
2023-05-15T01:45:25.425Z,16.87
2023-05-15T01:48:10.045Z,22.10
2023-05-15T01:50:56.147Z,17.67
2023-05-15T01:53:41.337Z,16.50
2023-05-15T01:56:26.055Z,17.27
2023-05-15T01:59:10.942Z,17.47
2023-05-15T02:01:57.192Z,18.10
2023-05-15T02:04:42.298Z,17.07
2023-05-15T02:07:26.540Z,16.90
2023-05-15T02:10:12.825Z,19.33
2023-05-15T02:12:56.947Z,18.80
2023-05-15T02:15:40.201Z,16.97
2023-05-15T02:18:24.925Z,19.00
2023-05-15T02:21:08.117Z,18.47
2023-05-15T02:23:51.402Z,16.60
2023-05-15T02:26:50.798Z,21.43
2023-05-15T02:29:41.377Z,18.50
2023-05-15T02:32:31.045Z,18.30
2023-05-15T02:35:23.682Z,20.50
2023-05-15T02:38:10.451Z,19.63
2023-05-15T02:40:57.526Z,21.13
2023-05-15T02:43:42.439Z,22.07
2023-05-15T02:46:29.342Z,20.80
2023-05-15T02:49:13.673Z,21.50
2023-05-15T02:51:58.637Z,24.10
2023-05-15T02:54:42.309Z,23.53
2023-05-15T02:57:25.501Z,20.73
2023-05-15T03:00:13.778Z,18.60
2023-05-15T03:02:57.090Z,20.63
2023-05-15T03:05:40.661Z,22.03
2023-05-15T03:08:25.359Z,22.47
2023-05-15T03:11:08.562Z,22.80
2023-05-15T03:13:53.747Z,27.43
2023-05-15T03:16:39.189Z,21.43
2023-05-15T03:19:22.611Z,21.20
2023-05-15T03:22:06.273Z,22.37
2023-05-15T03:24:50.851Z,26.00
2023-05-15T03:27:34.026Z,23.03
2023-05-15T03:30:17.932Z,23.23
2023-05-15T03:33:04.002Z,26.33
2023-05-15T03:35:47.381Z,44.90
2023-05-15T03:38:30.645Z,30.27
2023-05-15T03:41:15.567Z,25.80
2023-05-15T03:43:58.914Z,32.40
2023-05-15T03:46:42.480Z,32.50
2023-05-15T03:49:25.879Z,29.63
2023-05-15T03:52:10.600Z,31.10
2023-05-15T03:54:53.969Z,32.10
2023-05-15T03:57:38.980Z,31.57
2023-05-15T04:00:22.320Z,28.17
2023-05-15T04:03:05.850Z,26.90
2023-05-15T04:05:50.814Z,25.73
2023-05-15T04:08:34.759Z,24.73
2023-05-15T04:11:18.578Z,25.73
2023-05-15T04:14:03.680Z,27.20
2023-05-15T04:16:48.498Z,25.87
2023-05-15T04:19:32.019Z,25.23
2023-05-15T04:22:15.373Z,25.83
2023-05-15T04:24:58.777Z,25.17
2023-05-15T04:27:43.932Z,27.00
2023-05-15T04:30:28.712Z,27.47
2023-05-15T04:33:12.272Z,23.40
2023-05-15T04:35:56.185Z,22.43
2023-05-15T04:38:39.488Z,27.63
2023-05-15T04:41:22.751Z,24.37
2023-05-15T04:44:07.363Z,23.40
2023-05-15T04:46:52.297Z,29.67
2023-05-15T04:49:51.141Z,28.87
2023-05-15T04:52:34.832Z,25.17
2023-05-15T04:55:28.920Z,31.87
2023-05-15T04:58:12.229Z,26.37
2023-05-15T05:00:55.722Z,27.93
2023-05-15T05:03:40.476Z,30.27
2023-05-15T05:06:24.545Z,25.87
2023-05-15T05:09:07.742Z,25.70
2023-05-15T05:11:51.064Z,25.67
2023-05-15T05:14:34.288Z,27.47
2023-05-15T05:17:17.850Z,23.40
2023-05-15T05:20:02.646Z,25.20
2023-05-15T05:22:45.865Z,27.90
2023-05-15T05:25:29.148Z,24.93
2023-05-15T05:28:12.511Z,31.17
2023-05-15T05:30:56.327Z,28.80
2023-05-15T05:33:39.674Z,31.87
2023-05-15T05:36:24.376Z,30.97
2023-05-15T05:39:07.763Z,31.47
2023-05-15T05:41:51.120Z,31.80
2023-05-15T05:44:35.299Z,28.70
2023-05-15T05:47:19.777Z,24.83
2023-05-15T05:50:03.326Z,27.67
2023-05-15T05:52:47.960Z,31.70
2023-05-15T05:55:31.177Z,29.03
2023-05-15T05:58:18.366Z,27.80
2023-05-15T06:01:09.222Z,30.80
2023-05-15T06:03:52.763Z,32.90
2023-05-15T06:06:36.116Z,35.20
2023-05-15T06:09:20.720Z,34.80
2023-05-15T06:12:04.954Z,39.87
2023-05-15T06:14:48.287Z,41.53
2023-05-15T06:17:31.892Z,30.57
2023-05-15T06:20:15.987Z,29.37
2023-05-15T06:22:59.333Z,27.67
2023-05-15T06:25:44.742Z,29.47
2023-05-15T06:28:28.266Z,25.90
2023-05-15T06:31:12.724Z,27.83
2023-05-15T06:33:55.895Z,23.90
2023-05-15T06:36:39.279Z,29.83
2023-05-15T06:39:24.651Z,28.33
2023-05-15T06:42:09.353Z,26.70
2023-05-15T06:44:52.676Z,28.03
2023-05-15T06:47:36.003Z,21.53
2023-05-15T06:50:19.297Z,21.77
2023-05-15T06:53:02.775Z,25.87
2023-05-15T06:55:48.268Z,22.87
2023-05-15T06:58:32.887Z,27.43
2023-05-15T07:01:16.118Z,28.43
2023-05-15T07:03:59.739Z,25.20
2023-05-15T07:06:43.146Z,24.80
2023-05-15T07:09:28.938Z,22.80
2023-05-15T07:12:12.161Z,25.70
2023-05-15T07:14:56.901Z,22.30
2023-05-15T07:17:40.212Z,25.13
2023-05-15T07:20:25.853Z,25.87
2023-05-15T07:23:10.792Z,23.57
2023-05-15T07:25:55.248Z,21.77
2023-05-15T07:28:38.409Z,28.87
2023-05-15T07:31:23.633Z,21.83
2023-05-15T07:34:06.933Z,25.07
2023-05-15T07:36:50.250Z,30.47
2023-05-15T07:39:33.729Z,26.27
2023-05-15T07:42:16.997Z,27.17
2023-05-15T07:45:00.378Z,32.07
2023-05-15T07:47:47.361Z,33.83
2023-05-15T07:50:30.973Z,40.40
2023-05-15T07:53:14.475Z,69.30
2023-05-15T07:55:58.899Z,35.87
2023-05-15T07:58:42.259Z,33.17
2023-05-15T08:01:25.614Z,36.30
2023-05-15T08:04:10.599Z,35.03
2023-05-15T08:06:53.884Z,35.67
2023-05-15T08:09:37.180Z,30.97
2023-05-15T08:12:22.203Z,35.93
2023-05-15T08:15:08.751Z,31.03
2023-05-15T08:17:52.096Z,30.60
2023-05-15T08:20:36.837Z,31.13
2023-05-15T08:23:20.598Z,31.80
2023-05-15T08:26:04.110Z,29.97
2023-05-15T08:28:48.610Z,26.07
2023-05-15T08:31:31.845Z,30.13
2023-05-15T08:34:15.091Z,31.23
2023-05-15T08:37:00.851Z,27.93
2023-05-15T08:39:44.032Z,27.63
2023-05-15T08:42:34.487Z,28.10
2023-05-15T08:45:33.222Z,26.00
2023-05-15T08:48:20.619Z,26.37
2023-05-15T08:51:05.198Z,31.23
2023-05-15T08:53:50.303Z,25.67
2023-05-15T08:56:33.860Z,23.20
2023-05-15T08:59:17.144Z,23.90
2023-05-15T09:02:01.639Z,29.20
2023-05-15T09:04:46.005Z,29.90
2023-05-15T09:07:31.232Z,27.83
2023-05-15T09:10:17.100Z,34.80
2023-05-15T09:13:03.312Z,30.67
2023-05-15T09:15:49.142Z,30.57
2023-05-15T09:18:34.117Z,26.90
2023-05-15T09:21:25.439Z,29.77
2023-05-15T09:24:19.572Z,31.97
2023-05-15T09:27:06.431Z,29.90
2023-05-15T09:29:51.476Z,33.67
2023-05-15T09:32:34.947Z,30.30
2023-05-15T09:35:33.656Z,34.23
2023-05-15T09:38:17.533Z,32.20
2023-05-15T09:41:04.996Z,31.50
2023-05-15T09:43:49.618Z,30.53
2023-05-15T09:46:37.329Z,32.13
2023-05-15T09:49:20.756Z,29.07
2023-05-15T09:52:04.209Z,25.83
2023-05-15T09:54:50.227Z,28.80
2023-05-15T09:57:33.794Z,28.47
2023-05-15T10:00:22.744Z,27.90
2023-05-15T10:03:07.202Z,26.90
2023-05-15T10:05:50.970Z,27.53
2023-05-15T10:08:35.164Z,29.50
2023-05-15T10:11:19.187Z,27.67
2023-05-15T10:14:03.270Z,28.83
2023-05-15T10:16:47.974Z,25.27
2023-05-15T10:19:31.911Z,29.10
2023-05-15T10:22:17.580Z,30.40
2023-05-15T10:25:03.953Z,28.47
2023-05-15T10:27:48.968Z,26.73
2023-05-15T10:30:33.982Z,31.40
2023-05-15T10:33:20.879Z,27.10
2023-05-15T10:36:06.846Z,25.30
2023-05-15T10:38:51.825Z,24.63
2023-05-15T10:41:38.333Z,27.60
2023-05-15T10:44:23.253Z,32.93
2023-05-15T10:47:07.935Z,28.10
2023-05-15T10:49:52.823Z,34.73
2023-05-15T10:55:35.575Z,28.27
2023-05-15T10:58:19.440Z,30.87
2023-05-15T11:01:02.726Z,32.67
2023-05-15T11:03:50.022Z,33.10
2023-05-15T11:06:36.210Z,66.07
2023-05-15T11:09:34.836Z,37.83
2023-05-15T11:12:18.191Z,32.87
2023-05-15T11:15:20.638Z,31.27
2023-05-15T11:18:05.227Z,39.27
2023-05-15T11:21:07.426Z,30.47
2023-05-15T11:24:05.657Z,44.90
2023-05-15T11:26:54.144Z,40.67
2023-05-15T11:29:37.622Z,34.60
2023-05-15T11:32:33.239Z,33.10
2023-05-15T11:35:21.499Z,30.70
2023-05-15T11:38:06.615Z,32.67
2023-05-15T11:40:57.141Z,28.57
2023-05-15T11:43:42.586Z,29.73
2023-05-15T11:46:26.904Z,33.73
2023-05-15T11:49:11.983Z,34.83
2023-05-15T11:51:56.149Z,31.20
2023-05-15T11:54:41.061Z,34.20
2023-05-15T11:57:26.010Z,34.73
2023-05-15T12:00:11.896Z,30.77
2023-05-15T12:02:55.358Z,25.90
2023-05-15T12:05:53.612Z,31.87
2023-05-15T12:08:42.215Z,29.83
2023-05-15T12:11:26.233Z,31.83
2023-05-15T12:14:15.322Z,40.77
2023-05-15T12:17:03.009Z,31.63
2023-05-15T12:19:48.383Z,28.63
2023-05-15T12:22:38.412Z,35.97
2023-05-15T12:25:21.897Z,30.40
2023-05-15T12:28:07.067Z,37.47
2023-05-15T12:30:53.080Z,33.37
2023-05-15T12:33:38.149Z,44.30
2023-05-15T12:36:23.635Z,32.40
2023-05-15T12:39:08.632Z,26.67
2023-05-15T12:41:54.359Z,28.87
2023-05-15T12:44:37.698Z,28.33
2023-05-15T12:51:30.058Z,32.47
2023-05-15T12:54:19.745Z,33.90
2023-05-15T12:57:03.142Z,24.83
2023-05-15T12:59:46.606Z,29.27
2023-05-15T13:02:31.613Z,30.70
2023-05-15T13:05:15.272Z,33.57
2023-05-15T13:08:01.101Z,26.40
2023-05-15T13:10:44.711Z,29.93
2023-05-15T13:13:45.427Z,28.77
2023-05-15T13:16:30.067Z,24.43
2023-05-15T13:19:13.624Z,26.40
2023-05-15T13:21:57.766Z,28.87
2023-05-15T13:24:47.015Z,39.87
2023-05-15T13:27:30.292Z,31.13
2023-05-15T13:30:14.744Z,28.43
2023-05-15T13:32:57.952Z,28.07
2023-05-15T13:35:43.936Z,34.40
2023-05-15T13:38:27.302Z,35.17
2023-05-15T13:41:11.925Z,25.77
2023-05-15T13:43:55.284Z,25.60
2023-05-15T13:46:38.582Z,32.73
2023-05-15T13:49:21.772Z,30.23
2023-05-15T13:52:05.652Z,31.03
2023-05-15T13:54:49.972Z,25.33
2023-05-15T13:57:34.617Z,30.23
2023-05-15T14:00:21.439Z,26.30
2023-05-15T14:03:05.313Z,46.23
2023-05-15T14:05:48.497Z,36.00
2023-05-15T14:08:31.906Z,27.57
2023-05-15T14:11:15.207Z,33.87
2023-05-15T14:14:00.068Z,30.50
2023-05-15T14:16:44.482Z,33.13
2023-05-15T14:19:28.328Z,27.63
2023-05-15T14:22:12.477Z,24.07
2023-05-15T14:24:55.731Z,26.40
2023-05-15T14:27:39.684Z,28.13
2023-05-15T14:30:24.501Z,25.53
2023-05-15T14:33:07.939Z,28.97
2023-05-15T14:35:51.190Z,22.50
2023-05-15T14:38:34.519Z,23.10
2023-05-15T14:41:23.223Z,20.43
2023-05-15T14:44:06.416Z,29.37
2023-05-15T14:47:06.790Z,18.73
2023-05-15T14:49:50.123Z,25.23
2023-05-15T14:52:33.368Z,20.33
2023-05-15T14:55:22.106Z,18.27
2023-05-15T14:58:05.341Z,21.70
2023-05-15T15:00:49.264Z,16.40
2023-05-15T15:03:34.458Z,18.57
2023-05-15T15:06:17.981Z,20.70
2023-05-15T15:09:01.297Z,27.90
2023-05-15T15:11:44.890Z,26.90
2023-05-15T15:14:28.424Z,23.50
2023-05-15T15:17:12.402Z,17.17
2023-05-15T15:19:56.977Z,20.57
2023-05-15T15:22:41.375Z,17.30
2023-05-15T15:25:26.051Z,20.10
2023-05-15T15:28:10.435Z,23.93
2023-05-15T15:30:54.011Z,22.23
2023-05-15T15:33:37.936Z,22.43
2023-05-15T15:36:23.964Z,19.43
2023-05-15T15:39:07.117Z,19.73
2023-05-15T15:41:50.462Z,25.47
2023-05-15T15:44:35.277Z,24.33
2023-05-15T15:47:18.459Z,27.57
2023-05-15T15:50:02.985Z,22.27
2023-05-15T15:52:48.076Z,29.43
2023-05-15T15:55:31.348Z,26.57
2023-05-15T15:58:14.841Z,27.23
2023-05-15T16:00:58.736Z,24.53
2023-05-15T16:03:42.110Z,32.00
2023-05-15T16:06:25.208Z,31.93
2023-05-15T16:09:09.861Z,28.37
2023-05-15T16:11:53.371Z,28.53
2023-05-15T16:14:36.809Z,29.40
2023-05-15T16:17:21.223Z,35.10
2023-05-15T16:20:07.364Z,30.17
2023-05-15T16:22:51.366Z,32.33
2023-05-15T16:25:38.251Z,33.67
2023-05-15T16:28:21.930Z,29.87
2023-05-15T16:31:10.680Z,32.60
2023-05-15T16:33:58.511Z,40.30
2023-05-15T16:36:42.357Z,31.00
2023-05-15T16:39:26.732Z,37.60
2023-05-15T16:42:11.409Z,34.33
2023-05-15T16:44:54.693Z,34.17
2023-05-15T16:47:39.694Z,37.33
2023-05-15T16:50:23.220Z,38.57
2023-05-15T16:53:07.765Z,37.83
2023-05-15T16:55:51.052Z,45.33
2023-05-15T16:58:37.220Z,35.43
2023-05-15T17:01:24.303Z,37.13
2023-05-15T17:04:08.413Z,35.63
2023-05-15T17:06:51.962Z,36.20
2023-05-15T17:09:36.248Z,39.83
2023-05-15T17:12:22.176Z,42.10
2023-05-15T17:15:08.939Z,38.90
2023-05-15T17:17:52.314Z,46.20
2023-05-15T17:20:35.632Z,39.43
2023-05-15T17:23:23.143Z,34.23
2023-05-15T17:26:06.470Z,36.20
2023-05-15T17:28:49.896Z,33.90
2023-05-15T17:31:35.626Z,37.97
2023-05-15T17:34:18.954Z,40.77
2023-05-15T17:37:02.338Z,26.17
2023-05-15T17:39:48.822Z,40.57
2023-05-15T17:42:32.036Z,33.00
2023-05-15T17:45:16.998Z,35.73
2023-05-15T17:48:05.045Z,39.60
2023-05-15T17:50:48.356Z,37.97
2023-05-15T17:53:31.765Z,33.37
2023-05-15T17:56:15.613Z,35.53
2023-05-15T17:58:58.853Z,33.60
2023-05-15T18:01:42.632Z,33.00
2023-05-15T18:04:30.774Z,33.23
2023-05-15T18:07:14.072Z,36.17
2023-05-15T18:09:57.516Z,41.20
2023-05-15T18:12:40.935Z,40.63
2023-05-15T18:15:24.324Z,39.00
2023-05-15T18:18:07.926Z,42.90
2023-05-15T18:20:52.965Z,41.60
2023-05-15T18:23:36.525Z,41.07
2023-05-15T18:26:19.681Z,38.43
2023-05-15T18:29:03.397Z,42.77
2023-05-15T18:31:47.107Z,42.43
2023-05-15T18:34:30.420Z,45.93
2023-05-15T18:37:15.093Z,42.77
2023-05-15T18:39:59.577Z,37.73
2023-05-15T18:42:43.006Z,36.77
2023-05-15T18:45:26.884Z,42.30
2023-05-15T18:48:10.487Z,36.97
2023-05-15T18:50:54.501Z,43.23
2023-05-15T18:53:39.210Z,41.53
2023-05-15T18:56:23.071Z,36.93
2023-05-15T18:59:06.542Z,38.30
2023-05-15T19:01:53.427Z,38.53
2023-05-15T19:04:37.996Z,37.07
2023-05-15T19:07:37.010Z,36.40
2023-05-15T19:10:22.052Z,42.90
2023-05-15T19:13:05.248Z,35.70
2023-05-15T19:15:57.844Z,33.07
2023-05-15T19:18:42.190Z,35.60
2023-05-15T19:21:25.720Z,38.00
2023-05-15T19:24:09.470Z,34.53
2023-05-15T19:26:53.995Z,35.47
2023-05-15T19:29:37.260Z,44.30
2023-05-15T19:32:20.848Z,34.40
2023-05-15T19:35:09.013Z,37.30
2023-05-15T19:37:52.215Z,44.60
2023-05-15T19:40:37.089Z,38.47
2023-05-15T19:43:21.681Z,41.57
2023-05-15T19:46:04.929Z,40.03
2023-05-15T19:48:48.461Z,45.17
2023-05-15T19:51:32.519Z,45.90
2023-05-15T19:54:16.166Z,41.80
2023-05-15T19:57:02.998Z,41.07
2023-05-15T19:59:47.617Z,41.60
2023-05-15T20:02:30.903Z,43.60
2023-05-15T20:05:14.092Z,39.83
2023-05-15T20:07:57.359Z,41.07
2023-05-15T20:10:40.514Z,46.50
2023-05-15T20:13:24.545Z,42.97
2023-05-15T20:16:10.858Z,41.63
2023-05-15T20:18:55.402Z,36.43
2023-05-15T20:21:38.549Z,44.33
2023-05-15T20:24:25.930Z,46.10
2023-05-15T20:27:09.604Z,53.77
2023-05-15T20:29:52.775Z,43.47
2023-05-15T20:32:37.490Z,45.97
2023-05-15T20:35:20.914Z,41.83
2023-05-15T20:38:04.547Z,43.00
2023-05-15T20:40:47.664Z,47.73
2023-05-15T20:43:30.713Z,48.63
2023-05-15T20:46:14.058Z,47.10
2023-05-15T20:48:58.657Z,46.00
2023-05-15T20:51:44.578Z,43.27
2023-05-15T20:54:27.795Z,42.80
2023-05-15T20:57:10.985Z,51.47
2023-05-15T20:59:54.121Z,46.67
2023-05-15T21:02:37.248Z,52.47
2023-05-15T21:05:21.903Z,39.43
2023-05-15T21:08:05.899Z,44.07
2023-05-15T21:10:53.015Z,47.40
2023-05-15T21:13:37.902Z,46.27
2023-05-15T21:16:21.199Z,44.77
2023-05-15T21:19:04.871Z,42.77
2023-05-15T21:21:49.631Z,50.27
2023-05-15T21:24:32.732Z,46.57
2023-05-15T21:27:15.812Z,44.77
2023-05-15T21:29:58.975Z,42.37
2023-05-15T21:32:42.612Z,48.53
2023-05-15T21:35:28.877Z,45.77
2023-05-15T21:38:13.460Z,43.10
2023-05-15T21:40:56.661Z,41.77
2023-05-15T21:43:39.864Z,45.77
2023-05-15T21:46:23.154Z,45.17
2023-05-15T21:49:06.494Z,43.90
2023-05-15T21:51:49.632Z,45.97
2023-05-15T21:54:34.340Z,42.33
2023-05-15T21:57:17.440Z,38.23
2023-05-15T22:00:00.624Z,41.27
2023-05-15T22:02:44.318Z,33.97
2023-05-15T22:05:27.821Z,38.23
2023-05-15T22:08:11.042Z,40.37
2023-05-15T22:10:56.011Z,38.17
2023-05-15T22:13:39.122Z,41.70
2023-05-15T22:16:22.452Z,38.07
2023-05-15T22:19:05.754Z,38.90
2023-05-15T22:21:49.262Z,43.30
2023-05-15T22:24:32.610Z,39.10
2023-05-15T22:27:17.496Z,34.97
2023-05-15T22:30:00.908Z,36.43
2023-05-15T22:32:44.149Z,38.97
2023-05-15T22:35:28.185Z,36.73
2023-05-15T22:38:12.543Z,33.33
2023-05-15T22:40:55.752Z,32.63
2023-05-15T22:43:40.646Z,41.03
2023-05-15T22:46:23.892Z,32.37
2023-05-15T22:49:12.213Z,35.57
2023-05-15T22:51:56.845Z,32.30
2023-05-15T22:54:40.407Z,42.87
2023-05-15T22:57:24.506Z,30.63
2023-05-15T23:00:10.702Z,35.87
2023-05-15T23:02:55.372Z,37.93
2023-05-15T23:05:38.636Z,35.83
2023-05-15T23:08:21.940Z,35.50
2023-05-15T23:11:05.151Z,38.63
2023-05-15T23:13:48.275Z,38.23
2023-05-15T23:16:32.999Z,34.13
2023-05-15T23:19:16.728Z,39.17
2023-05-15T23:21:59.997Z,37.60
2023-05-15T23:24:43.133Z,33.00
2023-05-15T23:27:26.269Z,37.87
2023-05-15T23:30:10.906Z,38.53
2023-05-15T23:32:56.883Z,35.30
2023-05-15T23:35:40.030Z,35.80
2023-05-15T23:38:23.668Z,35.67
2023-05-15T23:41:06.943Z,34.57
2023-05-15T23:43:50.992Z,34.73
2023-05-15T23:46:35.573Z,36.23
2023-05-15T23:49:20.175Z,38.80
2023-05-15T23:52:03.324Z,35.33
2023-05-15T23:54:46.715Z,35.10
2023-05-15T23:57:29.918Z,36.47
